Time;durP1;ratioP1;P1;durP2;ratioP2;P2;SDS_P1;SDS_P2;PMS_P1;PMS_P2;Temp;Humidity;BMP_temperature;BMP_pressure;BME280_temperature;BME280_humidity;BME280_pressure;Samples;Min_cycle;Max_cycle;Signal;HPM_P1;HPM_P2
2021/12/08 00:00:11;;;;;;;0.50;0.50;;;4.20;99.90;;;;;;5052624;28;20301;-76
2021/12/08 00:02:38;;;;;;;0.50;0.40;;;4.30;99.90;;;;;;5053409;28;20191;-75
2021/12/08 00:05:08;;;;;;;0.60;0.60;;;4.20;99.90;;;;;;5053057;28;20195;-77
2021/12/08 00:07:35;;;;;;;0.50;0.40;;;4.30;99.90;;;;;;5053882;28;20217;-76
2021/12/08 00:10:14;;;;;;;0.50;0.40;;;4.30;99.90;;;;;;5052419;28;20226;-77
2021/12/08 00:15:25;;;;;;;1.30;1.20;;;4.40;99.90;;;;;;5052947;28;20213;-77
2021/12/08 00:17:52;;;;;;;17.17;1.05;;;4.50;99.90;;;;;;5053375;28;20202;-77
2021/12/08 00:20:20;;;;;;;0.50;0.50;;;4.50;99.90;;;;;;5051626;28;20222;-77
2021/12/08 00:22:47;;;;;;;1.45;0.70;;;4.60;99.90;;;;;;5052700;28;20202;-77
2021/12/08 00:25:14;;;;;;;0.60;0.50;;;4.60;99.90;;;;;;5052892;28;20203;-79
2021/12/08 00:27:40;;;;;;;0.50;0.40;;;4.70;99.90;;;;;;5052718;28;20206;-76
2021/12/08 00:30:08;;;;;;;0.73;0.65;;;4.70;99.90;;;;;;5052673;28;20211;-76
2021/12/08 00:32:36;;;;;;;0.60;0.50;;;4.70;99.90;;;;;;5052376;28;20209;-76
2021/12/08 00:35:04;;;;;;;1.25;1.25;;;4.70;99.90;;;;;;5052672;28;20569;-77
2021/12/08 00:37:32;;;;;;;2.28;0.85;;;4.70;99.90;;;;;;5052524;28;20695;-78
2021/12/08 00:39:59;;;;;;;0.50;0.40;;;4.70;99.90;;;;;;5052131;28;20561;-78
2021/12/08 00:42:26;;;;;;;2.55;0.75;;;4.70;99.90;;;;;;5052363;28;20198;-77
2021/12/08 00:44:53;;;;;;;1.50;0.65;;;4.70;99.90;;;;;;5052512;28;20214;-77
2021/12/08 00:47:20;;;;;;;0.52;0.50;;;4.70;99.90;;;;;;5052703;28;20194;-77
2021/12/08 00:49:47;;;;;;;1.20;0.90;;;4.70;99.90;;;;;;5052298;28;20260;-77
2021/12/08 00:52:14;;;;;;;0.50;0.50;;;4.70;99.90;;;;;;5052501;28;20187;-78
2021/12/08 00:54:43;;;;;;;0.50;0.50;;;4.70;99.90;;;;;;5052098;28;20210;-72
2021/12/08 00:57:10;;;;;;;28.10;1.60;;;4.70;99.90;;;;;;5051645;28;20195;-77
2021/12/08 00:59:37;;;;;;;0.50;0.50;;;4.70;99.90;;;;;;5052322;28;20202;-77
2021/12/08 01:02:05;;;;;;;1.85;0.80;;;4.70;99.90;;;;;;5052263;28;20210;-77
2021/12/08 01:04:35;;;;;;;0.50;0.40;;;4.70;99.90;;;;;;5052492;28;20194;-77
2021/12/08 01:07:04;;;;;;;0.70;0.60;;;4.70;99.90;;;;;;5051831;28;20201;-77
2021/12/08 01:09:32;;;;;;;0.60;0.60;;;4.70;99.90;;;;;;5051925;28;20198;-77
2021/12/08 01:12:02;;;;;;;0.60;0.60;;;4.60;99.90;;;;;;5051863;28;20190;-77
2021/12/08 01:14:30;;;;;;;0.98;0.90;;;4.60;99.90;;;;;;5052024;28;20201;-77
2021/12/08 01:16:57;;;;;;;1.35;1.08;;;4.60;99.90;;;;;;5051465;28;20190;-77
2021/12/08 01:19:24;;;;;;;8.60;1.98;;;4.60;99.90;;;;;;5051424;28;20205;-77
2021/12/08 01:21:51;;;;;;;0.50;0.50;;;4.60;99.90;;;;;;5051971;28;20221;-74
2021/12/08 01:24:18;;;;;;;1.08;0.77;;;4.70;99.90;;;;;;5051490;28;20201;-78
2021/12/08 01:26:44;;;;;;;0.52;0.52;;;4.80;99.90;;;;;;5051565;28;20210;-73
2021/12/08 01:29:13;;;;;;;0.60;0.57;;;4.80;99.90;;;;;;5051609;28;20195;-76
2021/12/08 01:31:42;;;;;;;1.60;0.88;;;4.80;99.90;;;;;;5051099;28;20214;-76
2021/12/08 01:34:09;;;;;;;0.77;0.77;;;4.80;99.90;;;;;;5051178;28;20233;-77
2021/12/08 01:36:37;;;;;;;1.60;1.50;;;4.80;99.90;;;;;;5051608;28;20584;-77
2021/12/08 01:39:04;;;;;;;4.13;2.42;;;4.80;99.90;;;;;;5051517;28;20204;-77
2021/12/08 01:41:31;;;;;;;2.63;2.45;;;4.80;99.90;;;;;;5051230;28;20214;-77
2021/12/08 01:46:44;;;;;;;0.50;0.40;;;4.80;99.90;;;;;;5051648;28;20205;-76
2021/12/08 01:49:11;;;;;;;0.50;0.40;;;4.80;99.90;;;;;;5051221;28;20199;-77
2021/12/08 01:51:38;;;;;;;3.47;0.65;;;4.80;99.90;;;;;;5051348;28;20245;-74
2021/12/08 01:54:06;;;;;;;0.50;0.50;;;4.90;99.90;;;;;;5051407;28;20194;-77
2021/12/08 01:56:35;;;;;;;0.50;0.40;;;4.90;99.90;;;;;;5051405;28;20557;-77
2021/12/08 01:59:04;;;;;;;0.50;0.50;;;4.90;99.90;;;;;;5051103;28;20195;-78
2021/12/08 02:01:32;;;;;;;0.70;0.70;;;4.90;99.90;;;;;;5051487;28;20750;-76
2021/12/08 02:04:04;;;;;;;1.50;1.42;;;4.90;99.90;;;;;;5051532;28;20190;-77
2021/12/08 02:06:32;;;;;;;0.50;0.40;;;4.90;99.90;;;;;;5051762;28;20262;-77
2021/12/08 02:08:59;;;;;;;1.02;0.85;;;4.90;99.90;;;;;;5050629;28;20198;-76
2021/12/08 02:11:26;;;;;;;0.50;0.40;;;4.90;99.90;;;;;;5051004;28;20734;-77
2021/12/08 02:13:59;;;;;;;0.50;0.40;;;5.00;99.90;;;;;;5051418;28;20201;-75
2021/12/08 02:16:26;;;;;;;1.60;0.70;;;5.00;99.90;;;;;;5051366;28;20250;-77
2021/12/08 02:18:53;;;;;;;0.50;0.50;;;5.00;99.90;;;;;;5051319;28;20216;-78
2021/12/08 02:21:25;;;;;;;0.88;0.50;;;5.10;99.90;;;;;;5051162;28;20244;-77
2021/12/08 02:23:52;;;;;;;0.50;0.50;;;5.10;99.90;;;;;;5051343;28;20362;-75
2021/12/08 02:26:19;;;;;;;1.50;1.40;;;5.10;99.90;;;;;;5051068;28;20568;-76
2021/12/08 02:28:47;;;;;;;2.00;0.52;;;5.10;99.90;;;;;;5051164;28;20195;-75
2021/12/08 02:31:19;;;;;;;0.50;0.50;;;5.20;99.90;;;;;;5051194;28;20221;-77
2021/12/08 02:47:43;;;;;;;0.50;0.50;;;5.30;99.90;;;;;;5054571;28;20181;-77
2021/12/08 02:50:10;;;;;;;1.98;1.60;;;5.30;99.90;;;;;;5054169;28;20734;-77
2021/12/08 02:52:38;;;;;;;0.95;0.65;;;5.30;99.90;;;;;;5054751;28;20277;-77
2021/12/08 02:55:08;;;;;;;0.50;0.40;;;5.30;99.90;;;;;;5054508;28;20206;-77
2021/12/08 02:57:35;;;;;;;0.50;0.40;;;5.40;99.90;;;;;;5054396;28;20206;-77
2021/12/08 03:00:04;;;;;;;3.63;1.00;;;5.40;99.90;;;;;;5053987;28;20214;-77
2021/12/08 03:02:31;;;;;;;0.50;0.40;;;5.40;99.90;;;;;;5054422;28;20195;-76
2021/12/08 03:04:58;;;;;;;0.50;0.50;;;5.50;99.90;;;;;;5054404;28;20206;-77
2021/12/08 03:07:24;;;;;;;0.50;0.40;;;5.50;99.90;;;;;;5054480;28;20218;-77
2021/12/08 03:09:52;;;;;;;0.50;0.40;;;5.50;99.90;;;;;;5053847;28;20198;-76
2021/12/08 03:12:28;;;;;;;0.50;0.40;;;5.50;99.90;;;;;;5054156;28;20556;-76
2021/12/08 03:14:55;;;;;;;0.80;0.60;;;5.50;99.90;;;;;;5054093;28;20194;-77
2021/12/08 03:17:22;;;;;;;0.50;0.40;;;5.60;99.90;;;;;;5054242;28;20214;-76
2021/12/08 03:19:49;;;;;;;0.63;0.63;;;5.60;99.90;;;;;;5053807;28;20194;-77
2021/12/08 03:22:16;;;;;;;0.50;0.50;;;5.60;99.90;;;;;;5053932;28;20195;-77
2021/12/08 03:24:45;;;;;;;0.50;0.50;;;5.60;99.90;;;;;;5054083;28;20203;-72
2021/12/08 03:27:16;;;;;;;0.50;0.50;;;5.60;99.90;;;;;;5053492;28;20248;-77
2021/12/08 03:29:50;;;;;;;1.67;1.05;;;5.60;99.90;;;;;;5053244;28;20205;-77
2021/12/08 03:32:25;;;;;;;0.50;0.40;;;5.60;99.90;;;;;;5053974;28;20195;-77
2021/12/08 03:34:52;;;;;;;0.50;0.40;;;5.60;99.90;;;;;;5053990;28;20182;-77
2021/12/08 03:37:22;;;;;;;0.75;0.75;;;5.60;99.90;;;;;;5053753;28;20214;-76
2021/12/08 03:39:50;;;;;;;0.50;0.40;;;5.60;99.90;;;;;;5053689;28;20207;-76
2021/12/08 03:42:20;;;;;;;0.50;0.50;;;5.60;99.90;;;;;;5053197;28;20256;-75
2021/12/08 03:44:48;;;;;;;0.50;0.40;;;5.60;99.90;;;;;;5053953;28;20549;-76
2021/12/08 03:47:18;;;;;;;0.50;0.40;;;5.60;99.90;;;;;;5053630;28;20699;-77
2021/12/08 03:49:46;;;;;;;0.50;0.50;;;5.60;99.90;;;;;;5052902;28;20238;-76
2021/12/08 03:52:13;;;;;;;0.50;0.40;;;5.60;99.90;;;;;;5053438;28;20203;-76
2021/12/08 03:54:40;;;;;;;0.50;0.50;;;5.60;99.90;;;;;;5060406;23;20227;-78
2021/12/08 03:57:08;;;;;;;0.50;0.40;;;5.60;99.90;;;;;;5039899;28;20209;-79
2021/12/08 03:59:36;;;;;;;0.50;0.50;;;5.60;99.90;;;;;;5039384;28;20280;-78
2021/12/08 04:02:04;;;;;;;0.50;0.40;;;5.70;99.90;;;;;;5036908;28;20192;-79
2021/12/08 04:04:40;;;;;;;0.77;0.55;;;5.70;99.90;;;;;;5036190;28;20562;-79
2021/12/08 04:07:07;;;;;;;0.50;0.40;;;5.70;99.90;;;;;;5036194;28;20175;-78
2021/12/08 04:09:39;;;;;;;0.70;0.50;;;5.60;99.90;;;;;;5034975;28;20200;-78
2021/12/08 04:12:08;;;;;;;2.35;0.60;;;5.60;99.90;;;;;;5035925;28;20290;-78
2021/12/08 04:14:39;;;;;;;0.50;0.40;;;5.60;99.90;;;;;;5037928;28;20229;-78
2021/12/08 04:17:10;;;;;;;0.50;0.40;;;5.60;99.90;;;;;;5040575;28;20223;-79
2021/12/08 04:19:38;;;;;;;0.50;0.40;;;5.60;99.90;;;;;;5039549;28;20183;-78
2021/12/08 04:22:10;;;;;;;0.50;0.40;;;5.60;99.90;;;;;;5040613;28;20621;-79
2021/12/08 04:24:37;;;;;;;0.50;0.50;;;5.60;99.90;;;;;;5039002;28;20223;-80
2021/12/08 04:27:08;;;;;;;0.98;0.98;;;5.60;99.90;;;;;;5037082;28;20194;-79
2021/12/08 04:29:39;;;;;;;0.50;0.50;;;5.60;99.90;;;;;;5037577;28;20561;-79
2021/12/08 04:32:09;;;;;;;0.50;0.40;;;5.60;99.90;;;;;;5039201;28;20195;-79
2021/12/08 04:34:40;;;;;;;0.50;0.40;;;5.70;99.90;;;;;;5038839;28;20226;-78
2021/12/08 04:37:19;;;;;;;0.80;0.50;;;5.70;99.90;;;;;;5036256;28;20215;-79
2021/12/08 04:39:57;;;;;;;0.50;0.30;;;5.70;99.90;;;;;;5034334;28;20195;-79
2021/12/08 04:42:37;;;;;;;0.50;0.40;;;5.70;99.90;;;;;;5035384;28;20254;-79
2021/12/08 04:45:13;;;;;;;0.50;0.40;;;5.70;99.90;;;;;;5034990;28;20585;-79
2021/12/08 04:47:54;;;;;;;0.80;0.60;;;5.70;99.90;;;;;;5034844;28;20191;-79
2021/12/08 04:50:45;;;;;;;0.50;0.40;;;5.70;99.90;;;;;;5034167;28;20191;-78
2021/12/08 04:53:29;;;;;;;3.83;1.33;;;5.60;99.90;;;;;;5034523;28;20184;-79
2021/12/08 05:01:45;;;;;;;0.50;0.40;;;5.80;99.90;;;;;;5034570;28;20629;-78
2021/12/08 05:04:31;;;;;;;0.50;0.40;;;5.80;99.90;;;;;;5034305;28;20211;-79
2021/12/08 05:07:14;;;;;;;0.50;0.40;;;5.80;99.90;;;;;;5038112;28;20195;-80
2021/12/08 05:09:43;;;;;;;0.50;0.43;;;5.80;99.90;;;;;;5035442;28;20195;-79
2021/12/08 05:12:12;;;;;;;6.10;0.82;;;5.90;99.90;;;;;;5038591;28;20542;-79
2021/12/08 05:14:45;;;;;;;0.50;0.40;;;5.90;99.90;;;;;;5039295;28;20220;-79
2021/12/08 05:17:17;;;;;;;0.50;0.40;;;5.90;99.90;;;;;;5036888;28;20196;-79
2021/12/08 05:19:47;;;;;;;0.50;0.40;;;6.00;99.90;;;;;;5036743;28;20191;-78
2021/12/08 05:22:18;;;;;;;0.60;0.50;;;6.00;99.90;;;;;;5037705;28;20198;-79
2021/12/08 05:24:50;;;;;;;0.50;0.40;;;5.90;99.90;;;;;;5034194;28;20238;-79
2021/12/08 05:27:23;;;;;;;0.50;0.40;;;5.90;99.90;;;;;;5034417;28;20206;-79
2021/12/08 05:29:52;;;;;;;0.50;0.40;;;5.80;99.90;;;;;;5033918;28;20191;-79
2021/12/08 05:32:22;;;;;;;0.50;0.40;;;5.80;99.90;;;;;;5034411;28;20234;-80
2021/12/08 05:34:49;;;;;;;0.63;0.63;;;5.70;99.90;;;;;;5034023;28;20215;-77
2021/12/08 05:37:18;;;;;;;0.45;0.40;;;5.70;99.90;;;;;;5034980;28;20215;-79
2021/12/08 05:39:45;;;;;;;1.52;1.42;;;5.70;99.90;;;;;;5034174;28;20199;-79
2021/12/08 05:42:16;;;;;;;0.50;0.40;;;5.70;99.90;;;;;;5026301;28;20266;-79
2021/12/08 05:44:42;;;;;;;0.50;0.40;;;5.70;99.90;;;;;;5027146;28;20226;-79
2021/12/08 05:47:13;;;;;;;0.50;0.40;;;5.70;99.90;;;;;;5034210;28;20219;-78
2021/12/08 05:49:41;;;;;;;0.50;0.40;;;5.60;99.90;;;;;;5033497;28;20195;-79
2021/12/08 05:52:09;;;;;;;0.50;0.40;;;5.50;99.90;;;;;;5035056;28;20305;-77
2021/12/08 05:54:40;;;;;;;5.20;0.60;;;5.50;99.90;;;;;;5034670;28;20234;-79
2021/12/08 05:57:10;;;;;;;0.50;0.40;;;5.50;99.90;;;;;;5034422;28;20212;-78
2021/12/08 05:59:37;;;;;;;0.50;0.40;;;5.40;99.90;;;;;;5034469;28;20537;-79
2021/12/08 06:02:07;;;;;;;0.50;0.40;;;5.40;99.90;;;;;;5034139;28;20195;-78
2021/12/08 06:04:35;;;;;;;0.40;0.30;;;5.40;99.90;;;;;;5034212;28;20609;-79
2021/12/08 06:07:06;;;;;;;0.50;0.40;;;5.40;99.90;;;;;;5034739;28;20191;-79
2021/12/08 06:09:34;;;;;;;0.82;0.60;;;5.40;99.90;;;;;;5034118;28;20210;-78
2021/12/08 06:12:02;;;;;;;0.50;0.50;;;5.50;99.90;;;;;;5035265;28;20211;-77
2021/12/08 06:14:32;;;;;;;0.60;0.60;;;5.50;99.90;;;;;;5040183;28;20218;-80
2021/12/08 06:17:03;;;;;;;0.50;0.40;;;5.60;99.90;;;;;;5050343;28;20226;-79
2021/12/08 06:19:30;;;;;;;0.77;0.77;;;5.50;99.90;;;;;;5050962;28;20196;-79
2021/12/08 06:21:56;;;;;;;0.77;0.77;;;5.50;99.90;;;;;;5052803;28;20199;-79
2021/12/08 06:24:24;;;;;;;0.50;0.40;;;5.50;99.90;;;;;;5054033;28;20219;-78
2021/12/08 06:26:52;;;;;;;1.70;0.50;;;5.60;99.90;;;;;;5056043;28;20195;-79
2021/12/08 06:29:20;;;;;;;0.40;0.40;;;5.60;99.90;;;;;;5053267;28;20217;-79
2021/12/08 06:31:50;;;;;;;1.13;0.50;;;5.50;99.90;;;;;;5050512;28;20200;-78
2021/12/08 06:34:17;;;;;;;0.40;0.40;;;5.60;99.90;;;;;;5051228;28;20215;-79
2021/12/08 06:36:47;;;;;;;0.40;0.40;;;5.50;99.90;;;;;;5048585;28;20214;-79
2021/12/08 06:39:19;;;;;;;0.60;0.60;;;5.50;99.90;;;;;;5046730;28;20191;-79
2021/12/08 06:41:51;;;;;;;0.50;0.50;;;5.50;99.90;;;;;;5049008;28;20188;-79
2021/12/08 06:44:21;;;;;;;0.40;0.40;;;5.50;99.90;;;;;;5056005;28;20215;-80
2021/12/08 06:46:48;;;;;;;0.40;0.40;;;5.50;99.90;;;;;;5057466;28;20239;-79
2021/12/08 06:49:17;;;;;;;1.08;0.98;;;5.50;99.90;;;;;;5055290;28;20514;-80
2021/12/08 06:51:48;;;;;;;0.40;0.38;;;5.60;99.90;;;;;;5055827;28;20206;-79
2021/12/08 06:54:19;;;;;;;0.40;0.40;;;5.50;99.90;;;;;;5057066;28;20196;-80
2021/12/08 06:56:53;;;;;;;0.60;0.55;;;5.50;99.90;;;;;;5056444;28;20211;-80
2021/12/08 06:59:24;;;;;;;0.40;0.40;;;5.60;99.90;;;;;;5055441;28;20194;-79
2021/12/08 07:01:59;;;;;;;0.50;0.40;;;5.60;99.90;;;;;;5051914;28;20184;-79
2021/12/08 07:04:32;;;;;;;0.60;0.57;;;5.70;99.90;;;;;;5041579;28;20530;-79
2021/12/08 07:07:04;;;;;;;0.50;0.40;;;5.70;99.90;;;;;;5025245;28;20194;-80
2021/12/08 07:09:38;;;;;;;1.17;1.08;;;5.60;99.90;;;;;;5038450;28;20251;-78
2021/12/08 07:12:10;;;;;;;0.40;0.30;;;5.70;99.90;;;;;;5036772;28;20199;-79
2021/12/08 07:14:39;;;;;;;0.50;0.40;;;5.70;99.90;;;;;;5037922;28;20226;-79
2021/12/08 07:17:10;;;;;;;0.47;0.40;;;5.60;99.90;;;;;;5040542;28;20581;-78
2021/12/08 07:19:45;;;;;;;0.88;0.88;;;5.60;99.90;;;;;;5037382;28;20196;-78
2021/12/08 07:22:19;;;;;;;0.80;0.40;;;5.70;99.90;;;;;;5035515;28;20206;-77
2021/12/08 07:24:48;;;;;;;0.90;0.82;;;5.70;99.90;;;;;;5035141;28;20229;-78
2021/12/08 07:27:20;;;;;;;0.50;0.43;;;5.70;99.90;;;;;;5036474;28;20192;-77
2021/12/08 07:29:49;;;;;;;1.02;1.02;;;5.70;99.90;;;;;;5035537;28;20199;-77
2021/12/08 07:32:22;;;;;;;0.50;0.40;;;5.70;99.90;;;;;;5033810;28;20681;-77
2021/12/08 07:34:51;;;;;;;0.45;0.40;;;5.70;99.90;;;;;;5035312;28;20223;-77
2021/12/08 07:37:22;;;;;;;0.47;0.40;;;5.70;99.90;;;;;;5034543;28;20227;-78
2021/12/08 07:39:55;;;;;;;0.55;0.55;;;5.70;99.90;;;;;;5034373;28;20573;-78
2021/12/08 07:42:28;;;;;;;0.68;0.60;;;5.70;99.90;;;;;;5018849;28;20282;-78
2021/12/08 07:44:59;;;;;;;0.50;0.40;;;5.70;99.90;;;;;;5034235;28;20656;-77
2021/12/08 07:47:28;;;;;;;0.40;0.40;;;5.70;99.90;;;;;;5034935;28;20192;-78
2021/12/08 07:49:58;;;;;;;0.50;0.40;;;5.70;99.90;;;;;;5033483;28;20206;-78
2021/12/08 07:52:29;;;;;;;0.75;0.75;;;5.70;99.90;;;;;;5034119;28;20191;-77
2021/12/08 07:54:58;;;;;;;0.40;0.40;;;5.70;99.90;;;;;;5035507;28;20223;-78
2021/12/08 07:57:30;;;;;;;0.40;0.40;;;5.70;99.90;;;;;;5034351;28;20222;-76
2021/12/08 08:00:03;;;;;;;2.35;0.85;;;5.60;99.90;;;;;;5035900;28;20195;-76
2021/12/08 08:02:30;;;;;;;0.98;0.52;;;5.60;99.90;;;;;;5042362;28;20287;-77
2021/12/08 08:05:00;;;;;;;0.50;0.50;;;5.60;99.90;;;;;;5033792;28;20416;-78
2021/12/08 08:07:27;;;;;;;0.50;0.40;;;5.70;99.90;;;;;;5034078;28;20282;-78
2021/12/08 08:10:00;;;;;;;0.82;0.68;;;5.60;99.90;;;;;;5033555;28;20246;-78
2021/12/08 08:12:32;;;;;;;0.45;0.40;;;5.60;99.90;;;;;;5019647;28;20226;-77
2021/12/08 08:15:04;;;;;;;0.80;0.65;;;5.60;99.90;;;;;;5035190;28;20222;-77
2021/12/08 08:17:36;;;;;;;0.40;0.40;;;5.60;99.90;;;;;;5034245;28;20227;-78
2021/12/08 08:20:10;;;;;;;0.50;0.40;;;5.60;99.90;;;;;;5033042;28;20274;-78
2021/12/08 08:22:37;;;;;;;0.47;0.40;;;5.70;99.90;;;;;;5018887;28;20206;-78
2021/12/08 08:25:09;;;;;;;0.60;0.50;;;5.70;99.90;;;;;;5034479;28;20248;-78
2021/12/08 08:27:37;;;;;;;0.50;0.40;;;5.80;99.90;;;;;;5034312;28;20199;-77
2021/12/08 08:30:08;;;;;;;0.50;0.40;;;5.90;99.90;;;;;;5034281;28;20295;-78
2021/12/08 08:32:38;;;;;;;0.50;0.50;;;5.90;99.90;;;;;;5016927;28;20184;-77
2021/12/08 08:35:12;;;;;;;0.50;0.40;;;5.90;99.90;;;;;;5033276;28;20325;-78
2021/12/08 08:37:39;;;;;;;0.50;0.40;;;5.90;99.90;;;;;;5033184;28;20227;-78
2021/12/08 08:40:14;;;;;;;0.50;0.40;;;6.00;99.90;;;;;;5033026;28;20207;-77
2021/12/08 08:42:43;;;;;;;0.50;0.40;;;6.00;99.90;;;;;;5033308;28;20198;-77
2021/12/08 08:45:14;;;;;;;0.50;0.40;;;6.10;99.90;;;;;;5032709;28;20221;-78
2021/12/08 08:47:44;;;;;;;0.50;0.40;;;6.10;99.90;;;;;;5034452;28;20295;-77
2021/12/08 08:50:21;;;;;;;0.50;0.40;;;6.10;99.90;;;;;;5032787;28;20199;-77
2021/12/08 08:52:52;;;;;;;0.60;0.50;;;6.10;99.90;;;;;;5018114;28;20213;-77
2021/12/08 08:55:22;;;;;;;0.50;0.40;;;6.10;99.90;;;;;;5032058;28;20601;-76
2021/12/08 08:57:54;;;;;;;0.50;0.40;;;6.10;99.90;;;;;;5032944;28;20253;-77
2021/12/08 09:00:26;;;;;;;0.50;0.40;;;6.20;99.90;;;;;;5032491;28;20592;-75
2021/12/08 09:02:55;;;;;;;0.80;0.60;;;6.20;99.90;;;;;;5032511;28;20238;-77
2021/12/08 09:05:25;;;;;;;0.50;0.40;;;6.20;99.90;;;;;;5032005;28;20538;-77
2021/12/08 09:07:57;;;;;;;0.60;0.50;;;6.20;99.90;;;;;;5032505;28;20191;-77
2021/12/08 09:10:30;;;;;;;1.35;0.95;;;6.30;99.90;;;;;;5031569;28;20210;-76
2021/12/08 09:13:03;;;;;;;0.50;0.40;;;6.30;99.90;;;;;;5016423;28;20206;-77
2021/12/08 09:15:36;;;;;;;0.50;0.40;;;6.40;99.90;;;;;;5032452;28;20212;-78
2021/12/08 09:18:07;;;;;;;2.05;1.95;;;6.40;99.90;;;;;;5033022;28;20208;-80
2021/12/08 09:20:40;;;;;;;0.80;0.73;;;6.50;99.90;;;;;;5032282;28;20195;-77
2021/12/08 09:23:10;;;;;;;0.50;0.40;;;6.60;99.90;;;;;;5033284;28;20210;-77
2021/12/08 09:25:42;;;;;;;0.50;0.40;;;6.50;99.90;;;;;;5031644;28;20299;-78
2021/12/08 09:28:18;;;;;;;0.50;0.40;;;6.60;99.90;;;;;;5026988;28;20201;-77
2021/12/08 09:30:49;;;;;;;0.50;0.40;;;6.60;99.90;;;;;;5011818;28;20208;-78
2021/12/08 09:33:19;;;;;;;4.20;0.90;;;6.60;99.90;;;;;;5016808;28;20612;-77
2021/12/08 09:35:51;;;;;;;0.50;0.40;;;6.70;99.90;;;;;;5032820;28;20216;-79
2021/12/08 09:38:23;;;;;;;0.68;0.68;;;6.70;99.90;;;;;;5032826;28;20291;-78
2021/12/08 09:40:57;;;;;;;2.05;0.93;;;6.80;99.90;;;;;;5033023;28;20193;-78
2021/12/08 09:43:29;;;;;;;0.80;0.80;;;6.80;99.90;;;;;;5034144;28;20188;-78
2021/12/08 09:46:01;;;;;;;0.50;0.40;;;6.70;99.90;;;;;;5034600;28;20220;-78
2021/12/08 09:48:29;;;;;;;0.50;0.40;;;6.80;99.90;;;;;;5020342;28;20664;-78
2021/12/08 09:50:57;;;;;;;1.95;1.85;;;6.80;99.90;;;;;;5012195;28;20288;-78
2021/12/08 09:53:25;;;;;;;0.50;0.40;;;6.80;99.90;;;;;;5013146;28;20211;-78
2021/12/08 09:55:52;;;;;;;0.50;0.40;;;6.90;99.90;;;;;;5041609;22;20253;-74
2021/12/08 09:58:19;;;;;;;0.50;0.40;;;6.90;99.90;;;;;;5066026;28;20730;-76
2021/12/08 10:00:52;;;;;;;0.80;0.80;;;7.00;99.90;;;;;;5075439;28;20195;-78
2021/12/08 10:03:19;;;;;;;0.50;0.40;;;7.00;99.90;;;;;;5075740;28;20211;-77
2021/12/08 10:05:46;;;;;;;0.55;0.55;;;6.90;99.90;;;;;;5083975;28;20213;-78
2021/12/08 10:08:13;;;;;;;0.75;0.73;;;6.80;99.90;;;;;;5095419;28;20197;-78
2021/12/08 10:10:42;;;;;;;0.90;0.90;;;6.80;99.90;;;;;;5095461;28;20682;-79
2021/12/08 10:13:10;;;;;;;0.60;0.50;;;6.90;99.90;;;;;;5095470;28;20201;-77
2021/12/08 10:15:37;;;;;;;0.80;0.80;;;6.90;99.90;;;;;;5095776;28;20226;-77
2021/12/08 10:18:06;;;;;;;2.05;0.80;;;6.80;99.90;;;;;;5095246;28;20539;-77
2021/12/08 10:20:35;;;;;;;0.85;0.82;;;6.90;99.90;;;;;;5095923;28;20592;-77
2021/12/08 10:23:13;;;;;;;0.50;0.40;;;6.90;99.90;;;;;;5095510;28;20204;-77
2021/12/08 10:25:43;;;;;;;0.52;0.52;;;7.00;99.90;;;;;;5095526;28;20240;-77
2021/12/08 10:28:14;;;;;;;0.50;0.40;;;7.00;99.90;;;;;;5094859;28;20194;-78
2021/12/08 10:30:46;;;;;;;0.50;0.40;;;7.10;99.90;;;;;;5095420;28;20620;-77
2021/12/08 10:33:49;;;;;;;0.50;0.40;;;7.20;99.90;;;;;;5096611;28;20177;-76
2021/12/08 10:36:34;;;;;;;0.57;0.45;;;7.30;99.90;;;;;;5095622;28;20706;-78
2021/12/08 10:39:05;;;;;;;0.50;0.40;;;7.10;99.90;;;;;;5096286;28;20298;-77
2021/12/08 10:41:45;;;;;;;0.75;0.75;;;7.10;99.90;;;;;;5095021;28;20201;-77
2021/12/08 10:44:12;;;;;;;0.50;0.45;;;7.00;99.90;;;;;;5095770;28;20484;-77
2021/12/08 10:46:39;;;;;;;1.77;1.67;;;7.10;99.90;;;;;;5095031;28;20216;-77
2021/12/08 10:49:17;;;;;;;0.50;0.40;;;7.10;99.90;;;;;;5094274;28;20189;-77
2021/12/08 10:54:33;;;;;;;1.13;1.08;;;7.20;99.90;;;;;;5094920;28;20175;-77
2021/12/08 10:57:02;;;;;;;0.50;0.40;;;7.30;99.90;;;;;;5094554;28;20226;-76
2021/12/08 10:59:49;;;;;;;0.50;0.40;;;7.30;99.90;;;;;;5094460;28;20222;-77
2021/12/08 11:02:46;;;;;;;0.50;0.40;;;7.40;99.90;;;;;;5094694;28;20661;-76
2021/12/08 11:05:42;;;;;;;0.50;0.40;;;7.50;99.90;;;;;;5092596;28;20227;-76
2021/12/08 11:08:17;;;;;;;0.70;0.63;;;7.60;99.90;;;;;;5094756;28;20205;-76
2021/12/08 11:10:48;;;;;;;1.30;0.95;;;7.60;99.90;;;;;;5093809;28;20194;-77
2021/12/08 11:13:18;;;;;;;0.50;0.40;;;7.40;99.90;;;;;;5094302;28;20574;-77
2021/12/08 11:15:46;;;;;;;0.50;0.40;;;7.40;99.90;;;;;;5094601;28;20224;-76
2021/12/08 11:18:17;;;;;;;0.50;0.40;;;7.50;99.90;;;;;;5094132;28;20583;-77
2021/12/08 11:20:49;;;;;;;0.93;0.93;;;7.50;99.90;;;;;;5094487;28;20173;-76
2021/12/08 11:23:28;;;;;;;0.50;0.40;;;7.60;99.90;;;;;;5094424;28;20178;-75
2021/12/08 11:25:57;;;;;;;0.50;0.40;;;7.50;99.90;;;;;;5093854;28;20233;-77
2021/12/08 11:28:30;;;;;;;0.50;0.40;;;7.60;99.90;;;;;;5094847;28;20239;-77
2021/12/08 11:31:05;;;;;;;0.60;0.50;;;7.70;99.90;;;;;;5094223;28;20233;-73
2021/12/08 11:33:32;;;;;;;0.50;0.43;;;7.70;99.90;;;;;;5094297;28;20250;-76
2021/12/08 11:36:15;;;;;;;0.77;0.77;;;7.70;99.90;;;;;;5093971;28;20314;-74
2021/12/08 11:38:44;;;;;;;0.60;0.55;;;7.50;99.90;;;;;;5093106;28;20218;-76
2021/12/08 11:41:24;;;;;;;0.60;0.60;;;7.50;99.90;;;;;;5093923;28;20567;-76
2021/12/08 11:43:55;;;;;;;0.50;0.50;;;7.50;99.90;;;;;;5094179;28;20218;-76
2021/12/08 11:46:24;;;;;;;0.80;0.55;;;7.60;99.90;;;;;;5093163;28;20232;-76
2021/12/08 11:49:03;;;;;;;0.50;0.40;;;7.60;99.90;;;;;;5093806;28;20195;-75
2021/12/08 11:51:35;;;;;;;0.80;0.50;;;7.60;99.90;;;;;;5093592;28;20202;-77
2021/12/08 11:54:02;;;;;;;0.50;0.40;;;7.70;99.90;;;;;;5093483;28;20294;-71
2021/12/08 11:56:41;;;;;;;0.50;0.40;;;7.70;99.90;;;;;;5093261;28;20225;-76
2021/12/08 11:59:11;;;;;;;0.50;0.40;;;7.60;99.90;;;;;;5093532;28;20205;-76
2021/12/08 12:01:38;;;;;;;7.10;1.75;;;7.60;99.90;;;;;;5092984;28;20662;-76
2021/12/08 12:04:07;;;;;;;1.73;1.63;;;7.60;99.90;;;;;;5093711;28;20688;-77
2021/12/08 12:06:36;;;;;;;0.60;0.60;;;7.60;99.90;;;;;;5093049;28;20227;-76
2021/12/08 12:09:05;;;;;;;0.50;0.40;;;7.60;99.90;;;;;;5093515;28;20558;-76
2021/12/08 12:11:32;;;;;;;0.50;0.40;;;7.70;99.90;;;;;;5093098;28;20221;-78
2021/12/08 12:14:00;;;;;;;0.50;0.40;;;7.70;99.90;;;;;;5093318;28;20199;-75
2021/12/08 12:16:28;;;;;;;0.60;0.60;;;7.80;99.90;;;;;;5092601;28;20218;-76
2021/12/08 12:18:58;;;;;;;0.50;0.50;;;7.90;99.90;;;;;;5092556;28;20220;-72
2021/12/08 12:21:33;;;;;;;0.98;0.98;;;7.90;99.90;;;;;;5093125;28;20196;-76
2021/12/08 12:24:24;;;;;;;0.70;0.50;;;7.90;99.90;;;;;;5093604;28;20180;-74
2021/12/08 12:27:06;;;;;;;1.55;1.55;;;8.00;99.90;;;;;;5093115;28;20700;-74
2021/12/08 12:29:45;;;;;;;0.50;0.40;;;7.90;99.90;;;;;;5092658;28;20175;-77
2021/12/08 12:32:19;;;;;;;0.50;0.40;;;7.80;99.90;;;;;;5092610;28;20210;-76
2021/12/08 12:34:51;;;;;;;1.17;0.50;;;7.90;99.90;;;;;;5093312;28;20254;-76
2021/12/08 12:37:33;;;;;;;0.50;0.40;;;7.80;99.90;;;;;;5093043;28;20189;-77
2021/12/08 12:40:04;;;;;;;0.50;0.40;;;7.70;99.90;;;;;;5092107;28;20211;-75
2021/12/08 12:42:48;;;;;;;0.60;0.50;;;7.70;99.90;;;;;;5092609;28;20201;-76
2021/12/08 12:45:16;;;;;;;4.72;0.90;;;7.80;99.90;;;;;;5092928;28;20220;-76
2021/12/08 12:47:44;;;;;;;0.73;0.50;;;7.80;99.90;;;;;;5093141;28;20190;-77
2021/12/08 12:50:16;;;;;;;0.50;0.40;;;7.80;99.90;;;;;;5092715;28;20582;-77
2021/12/08 12:52:48;;;;;;;0.50;0.40;;;7.70;99.90;;;;;;5092672;28;20177;-77
2021/12/08 12:55:20;;;;;;;3.85;0.60;;;7.70;99.90;;;;;;5092433;28;20222;-76
2021/12/08 12:58:09;;;;;;;0.50;0.40;;;7.60;99.90;;;;;;5092390;28;20198;-78
2021/12/08 13:00:38;;;;;;;0.70;0.70;;;7.60;99.90;;;;;;5092541;28;20228;-76
2021/12/08 13:03:05;;;;;;;0.50;0.40;;;7.50;99.90;;;;;;5092114;28;20239;-77
2021/12/08 13:05:46;;;;;;;0.60;0.60;;;7.40;99.90;;;;;;5091983;28;20240;-76
2021/12/08 13:08:13;;;;;;;0.50;0.40;;;7.40;99.90;;;;;;5092128;28;20188;-76
2021/12/08 13:10:42;;;;;;;0.50;0.40;;;7.40;99.90;;;;;;5091891;28;20194;-77
2021/12/08 13:13:13;;;;;;;0.60;0.50;;;7.30;99.90;;;;;;5091879;28;20254;-76
2021/12/08 13:15:42;;;;;;;0.70;0.70;;;7.30;99.90;;;;;;5092414;28;20224;-77
2021/12/08 13:18:11;;;;;;;0.50;0.50;;;7.30;99.90;;;;;;5091885;28;20206;-76
2021/12/08 13:20:41;;;;;;;0.50;0.40;;;7.30;99.90;;;;;;5092023;28;20226;-76
2021/12/08 13:23:09;;;;;;;0.57;0.55;;;7.30;99.90;;;;;;5091863;28;20680;-76
2021/12/08 13:25:59;;;;;;;0.50;0.40;;;7.30;99.90;;;;;;5092185;28;20217;-76
2021/12/08 13:28:32;;;;;;;0.50;0.40;;;7.40;99.90;;;;;;5091829;28;20181;-75
2021/12/08 13:31:07;;;;;;;0.50;0.40;;;7.40;99.90;;;;;;5090892;28;20200;-73
2021/12/08 13:33:38;;;;;;;0.50;0.50;;;7.40;99.90;;;;;;5091961;28;20181;-75
2021/12/08 13:36:31;;;;;;;3.42;0.93;;;7.50;99.90;;;;;;5091951;28;20594;-76
2021/12/08 13:39:26;;;;;;;0.60;0.52;;;7.50;99.90;;;;;;5091153;28;20204;-73
2021/12/08 13:42:01;;;;;;;0.50;0.40;;;7.50;99.90;;;;;;5077963;28;20663;-76
2021/12/08 13:44:34;;;;;;;0.50;0.40;;;7.40;99.90;;;;;;5091948;28;20206;-76